KBBD - Brady/Curtis Fld, TX, US

Issued at 2327 UTC 14 Aug 2020
Updated at 0221 UTC 15 Aug 2020
Potential Impact None Slight Moderate High
Time0215Z 15/03Z 15/04Z 15/05Z 15/06Z 15/07Z 15/08Z 15/09Z 15/10Z 15/11Z 15/12Z 15/13Z 15/14Z 15/15Z>>
Type OBS PRVL PRVL PRVL PRVL PRVL PRVL PRVL PRVL PRVL PRVL PRVL PRVL PRVL
VIS 10 >6 >6 >6 >6 >6 >6 >6 >6 >6 >6 >6 >6 >6
CIG -- -- -- -- -- -- -- -- -- -- -- -- -- --
Cover CLR SKC SKC SKC SKC SKC SKC SKC SKC SKC SKC SKC SKC SKC
FltCat VFR VFR VFR VFR VFR VFR VFR VFR VFR VFR VFR VFR VFR VFR
WX -- -- -- -- -- -- -- -- -- -- -- -- -- --
WDir 160 160 160 160 160 160 160 160 160 160 160 160 160 160
WSpd 6 8 8 8 8 8 8 8 8 8 8 8 8 8
WGst -- -- -- -- -- -- -- -- -- -- -- -- -- --
Raw TAF
KBBD 142327Z 1500/1524 16008KT P6SM SKC

Raw METAR
KBBD 150215Z AUTO 16006KT 10SM CLR 35/11 A2988 RMK AO2
KBBD 150155Z AUTO 16009KT 10SM CLR 36/11 A2987 RMK AO2
KBBD 150135Z AUTO 16007KT 10SM CLR 36/10 A2986 RMK AO2
KBBD 150115Z AUTO 15006G12KT 10SM CLR 38/10 A2986 RMK AO2
KBBD 150055Z AUTO 17006KT 10SM CLR 39/09 A2985 RMK AO2
KBBD 150035Z AUTO 18006KT 10SM CLR 39/10 A2985 RMK AO2
KBBD 150015Z AUTO 00000KT 10SM CLR 40/10 A2985 RMK AO2
KBBD 142355Z AUTO 14004KT 10SM CLR 40/08 A2984 RMK AO2
KBBD 142335Z AUTO VRB03KT 10SM CLR 40/09 A2984 RMK AO2

METAR Board
Radar Display
Forecast Discussion
For situational awareness. Not to be used for flight planning purposes.